sensor_id;sensor_type;location;lat;lon;timestamp;pressure;altitude;pressure_sealevel;temperature;humidity
30073;BME280;16897;52.422;13.678;2023-07-31T00:00:54;100780.13;;;20.76;53.15
30073;BME280;16897;52.422;13.678;2023-07-31T00:04:56;100767.44;;;20.70;52.79
30073;BME280;16897;52.422;13.678;2023-07-31T00:08:58;100730.00;;;20.55;53.13
30073;BME280;16897;52.422;13.678;2023-07-31T00:12:59;100741.22;;;20.67;53.11
30073;BME280;16897;52.422;13.678;2023-07-31T00:17:01;100761.78;;;20.83;53.20
30073;BME280;16897;52.422;13.678;2023-07-31T00:21:02;100763.75;;;20.81;52.80
30073;BME280;16897;52.422;13.678;2023-07-31T00:25:04;100766.25;;;20.83;52.83
30073;BME280;16897;52.422;13.678;2023-07-31T00:29:07;100761.00;;;20.73;53.17
30073;BME280;16897;52.422;13.678;2023-07-31T00:33:08;100757.91;;;20.77;53.03
30073;BME280;16897;52.422;13.678;2023-07-31T00:37:12;100707.94;;;20.55;52.99
30073;BME280;16897;52.422;13.678;2023-07-31T00:41:14;100726.81;;;20.70;53.24
30073;BME280;16897;52.422;13.678;2023-07-31T00:45:15;100720.59;;;20.61;52.92
30073;BME280;16897;52.422;13.678;2023-07-31T00:49:17;100719.06;;;20.59;53.16
30073;BME280;16897;52.422;13.678;2023-07-31T00:53:19;100717.81;;;20.53;52.97
30073;BME280;16897;52.422;13.678;2023-07-31T00:57:20;100681.09;;;20.30;53.02
30073;BME280;16897;52.422;13.678;2023-07-31T01:01:22;100717.81;;;20.53;53.08
30073;BME280;16897;52.422;13.678;2023-07-31T01:05:43;100710.00;;;20.51;53.12
30073;BME280;16897;52.422;13.678;2023-07-31T01:10:04;100714.47;;;20.51;53.19
30073;BME280;16897;52.422;13.678;2023-07-31T01:14:08;100688.59;;;20.35;53.21
30073;BME280;16897;52.422;13.678;2023-07-31T01:18:10;100691.69;;;20.30;53.24
30073;BME280;16897;52.422;13.678;2023-07-31T01:26:26;100688.59;;;20.35;53.17
30073;BME280;16897;52.422;13.678;2023-07-31T01:30:34;100701.56;;;20.38;53.23
30073;BME280;16897;52.422;13.678;2023-07-31T01:34:38;100700.66;;;20.29;53.13
30073;BME280;16897;52.422;13.678;2023-07-31T01:38:41;100674.94;;;20.12;53.32
30073;BME280;16897;52.422;13.678;2023-07-31T01:42:43;100676.19;;;20.08;53.04
30073;BME280;16897;52.422;13.678;2023-07-31T01:46:45;100685.69;;;20.10;53.45
30073;BME280;16897;52.422;13.678;2023-07-31T01:50:46;100675.66;;;20.04;53.28
30073;BME280;16897;52.422;13.678;2023-07-31T01:54:48;100684.06;;;20.00;53.36
30073;BME280;16897;52.422;13.678;2023-07-31T01:58:49;100672.09;;;19.96;53.31
30073;BME280;16897;52.422;13.678;2023-07-31T02:02:51;100646.22;;;19.80;53.28
30073;BME280;16897;52.422;13.678;2023-07-31T02:06:54;100674.44;;;19.99;53.60
30073;BME280;16897;52.422;13.678;2023-07-31T02:10:56;100659.81;;;19.95;53.46
30073;BME280;16897;52.422;13.678;2023-07-31T02:14:58;100633.94;;;19.79;53.61
30073;BME280;16897;52.422;13.678;2023-07-31T02:19:00;100658.97;;;19.94;53.45
30073;BME280;16897;52.422;13.678;2023-07-31T02:23:02;100641.00;;;19.88;53.79
30073;BME280;16897;52.422;13.678;2023-07-31T02:27:04;100638.38;;;19.88;53.53
30073;BME280;16897;52.422;13.678;2023-07-31T02:31:05;100655.28;;;20.05;53.34
30073;BME280;16897;52.422;13.678;2023-07-31T02:35:09;100640.00;;;19.99;53.59
30073;BME280;16897;52.422;13.678;2023-07-31T02:39:11;100643.84;;;20.04;53.55
30073;BME280;16897;52.422;13.678;2023-07-31T02:43:12;100640.06;;;20.07;53.35
30073;BME280;16897;52.422;13.678;2023-07-31T02:47:14;100641.72;;;20.08;53.47
30073;BME280;16897;52.422;13.678;2023-07-31T02:51:16;100632.69;;;20.01;53.77
30073;BME280;16897;52.422;13.678;2023-07-31T02:55:17;100631.72;;;20.02;53.42
30073;BME280;16897;52.422;13.678;2023-07-31T02:59:19;100648.56;;;20.10;53.52
30073;BME280;16897;52.422;13.678;2023-07-31T03:03:21;100635.06;;;20.04;53.75
30073;BME280;16897;52.422;13.678;2023-07-31T03:07:23;100606.47;;;19.80;54.02
30073;BME280;16897;52.422;13.678;2023-07-31T03:11:25;100614.13;;;19.83;53.72
30073;BME280;16897;52.422;13.678;2023-07-31T03:15:27;100634.13;;;19.95;54.05
30073;BME280;16897;52.422;13.678;2023-07-31T03:19:31;100637.06;;;19.92;53.95
30073;BME280;16897;52.422;13.678;2023-07-31T03:23:33;100627.75;;;19.88;53.90
30073;BME280;16897;52.422;13.678;2023-07-31T03:27:34;100638.28;;;19.98;54.06
30073;BME280;16897;52.422;13.678;2023-07-31T03:31:37;100630.94;;;19.92;54.20
30073;BME280;16897;52.422;13.678;2023-07-31T03:35:38;100626.47;;;19.92;53.96
30073;BME280;16897;52.422;13.678;2023-07-31T03:39:40;100628.69;;;19.97;54.13
30073;BME280;16897;52.422;13.678;2023-07-31T03:43:42;100637.47;;;19.97;53.99
30073;BME280;16897;52.422;13.678;2023-07-31T03:47:44;100622.69;;;19.95;54.04
30073;BME280;16897;52.422;13.678;2023-07-31T03:51:45;100624.94;;;19.89;53.92
30073;BME280;16897;52.422;13.678;2023-07-31T03:55:47;100595.78;;;19.72;54.27
30073;BME280;16897;52.422;13.678;2023-07-31T03:59:48;100628.00;;;19.95;53.86
30073;BME280;16897;52.422;13.678;2023-07-31T04:03:50;100623.00;;;19.92;53.94
30073;BME280;16897;52.422;13.678;2023-07-31T04:07:51;100600.03;;;19.82;54.36
30073;BME280;16897;52.422;13.678;2023-07-31T04:11:53;100578.88;;;19.73;54.15
30073;BME280;16897;52.422;13.678;2023-07-31T04:15:55;100606.25;;;19.91;54.22
30073;BME280;16897;52.422;13.678;2023-07-31T04:19:56;100579.09;;;19.79;54.21
30073;BME280;16897;52.422;13.678;2023-07-31T04:23:58;100576.09;;;19.74;54.13
30073;BME280;16897;52.422;13.678;2023-07-31T04:28:00;100593.84;;;19.92;54.16
30073;BME280;16897;52.422;13.678;2023-07-31T04:32:02;100598.00;;;19.94;54.04
30073;BME280;16897;52.422;13.678;2023-07-31T04:36:03;100569.06;;;19.83;54.15
30073;BME280;16897;52.422;13.678;2023-07-31T04:40:05;100592.84;;;19.93;54.33
30073;BME280;16897;52.422;13.678;2023-07-31T04:44:07;100595.34;;;19.94;54.60
30073;BME280;16897;52.422;13.678;2023-07-31T04:48:08;100579.22;;;19.87;54.51
30073;BME280;16897;52.422;13.678;2023-07-31T04:52:09;100594.53;;;19.94;54.35
30073;BME280;16897;52.422;13.678;2023-07-31T04:56:11;100547.78;;;19.75;54.27
30073;BME280;16897;52.422;13.678;2023-07-31T05:00:13;100580.88;;;19.88;54.64
30073;BME280;16897;52.422;13.678;2023-07-31T05:04:15;100540.56;;;19.67;54.64
30073;BME280;16897;52.422;13.678;2023-07-31T05:08:16;100575.28;;;19.92;54.74
30073;BME280;16897;52.422;13.678;2023-07-31T05:12:21;100553.91;;;19.75;54.52
30073;BME280;16897;52.422;13.678;2023-07-31T05:16:23;100525.97;;;19.53;54.66
30073;BME280;16897;52.422;13.678;2023-07-31T05:20:24;100542.78;;;19.72;54.54
30073;BME280;16897;52.422;13.678;2023-07-31T05:24:26;100558.59;;;19.81;54.60
30073;BME280;16897;52.422;13.678;2023-07-31T05:28:28;100562.94;;;19.82;54.54
30073;BME280;16897;52.422;13.678;2023-07-31T05:32:30;100549.00;;;19.80;54.81
30073;BME280;16897;52.422;13.678;2023-07-31T05:36:31;100545.34;;;19.81;54.65
30073;BME280;16897;52.422;13.678;2023-07-31T05:40:33;100572.63;;;19.92;54.74
30073;BME280;16897;52.422;13.678;2023-07-31T05:44:34;100576.94;;;19.93;54.85
30073;BME280;16897;52.422;13.678;2023-07-31T05:48:36;100552.34;;;19.82;54.76
30073;BME280;16897;52.422;13.678;2023-07-31T05:52:38;100556.25;;;19.78;54.63
30073;BME280;16897;52.422;13.678;2023-07-31T05:56:39;100563.75;;;19.83;54.82
30073;BME280;16897;52.422;13.678;2023-07-31T06:00:41;100531.78;;;19.66;54.82
30073;BME280;16897;52.422;13.678;2023-07-31T06:04:43;100554.00;;;19.83;54.90
30073;BME280;16897;52.422;13.678;2023-07-31T06:08:44;100549.91;;;19.89;54.91
30073;BME280;16897;52.422;13.678;2023-07-31T06:12:46;100560.75;;;19.96;54.77
30073;BME280;16897;52.422;13.678;2023-07-31T06:16:48;100545.75;;;19.86;55.06
30073;BME280;16897;52.422;13.678;2023-07-31T06:20:49;100553.09;;;19.93;55.00
30073;BME280;16897;52.422;13.678;2023-07-31T06:24:54;100557.44;;;19.94;54.74
30073;BME280;16897;52.422;13.678;2023-07-31T06:28:56;100563.41;;;19.96;54.92
30073;BME280;16897;52.422;13.678;2023-07-31T06:32:58;100526.88;;;19.72;55.23
30073;BME280;16897;52.422;13.678;2023-07-31T06:36:59;100527.41;;;19.75;55.20
30073;BME280;16897;52.422;13.678;2023-07-31T06:41:00;100551.03;;;19.86;55.31
30073;BME280;16897;52.422;13.678;2023-07-31T06:45:02;100508.47;;;19.60;54.93
30073;BME280;16897;52.422;13.678;2023-07-31T06:49:04;100553.63;;;19.96;55.13
30073;BME280;16897;52.422;13.678;2023-07-31T06:53:06;100557.81;;;19.99;55.19
30073;BME280;16897;52.422;13.678;2023-07-31T06:57:07;100516.13;;;19.73;54.98
30073;BME280;16897;52.422;13.678;2023-07-31T07:01:09;100490.09;;;19.59;54.93
30073;BME280;16897;52.422;13.678;2023-07-31T07:05:11;100553.47;;;19.98;55.11
30073;BME280;16897;52.422;13.678;2023-07-31T07:09:13;100543.88;;;19.97;54.83
30073;BME280;16897;52.422;13.678;2023-07-31T07:13:14;100552.34;;;20.00;55.22
30073;BME280;16897;52.422;13.678;2023-07-31T07:17:16;100553.16;;;20.01;55.45
30073;BME280;16897;52.422;13.678;2023-07-31T07:21:18;100542.03;;;19.97;55.26
30073;BME280;16897;52.422;13.678;2023-07-31T07:25:19;100550.44;;;19.93;55.40
30073;BME280;16897;52.422;13.678;2023-07-31T07:29:21;100552.25;;;19.92;55.35
30073;BME280;16897;52.422;13.678;2023-07-31T07:33:23;100544.16;;;19.94;55.38
30073;BME280;16897;52.422;13.678;2023-07-31T07:37:24;100527.50;;;19.83;55.31
30073;BME280;16897;52.422;13.678;2023-07-31T07:41:26;100547.78;;;19.93;55.50
30073;BME280;16897;52.422;13.678;2023-07-31T07:45:27;100520.38;;;19.84;55.72
30073;BME280;16897;52.422;13.678;2023-07-31T07:49:29;100530.31;;;20.00;55.65
30073;BME280;16897;52.422;13.678;2023-07-31T07:53:30;100534.84;;;20.07;55.65
30073;BME280;16897;52.422;13.678;2023-07-31T07:57:32;100506.63;;;19.98;55.24
30073;BME280;16897;52.422;13.678;2023-07-31T08:01:34;100530.63;;;20.15;55.35
30073;BME280;16897;52.422;13.678;2023-07-31T08:05:36;100515.56;;;20.15;55.57
30073;BME280;16897;52.422;13.678;2023-07-31T08:09:37;100499.72;;;20.05;55.50
30073;BME280;16897;52.422;13.678;2023-07-31T08:13:39;100505.91;;;20.14;55.45
30073;BME280;16897;52.422;13.678;2023-07-31T08:17:40;100525.59;;;20.29;55.61
30073;BME280;16897;52.422;13.678;2023-07-31T08:21:42;100534.78;;;20.35;55.51
30073;BME280;16897;52.422;13.678;2023-07-31T08:25:44;100533.81;;;20.36;55.63
30073;BME280;16897;52.422;13.678;2023-07-31T08:29:46;100511.66;;;20.27;55.65
30073;BME280;16897;52.422;13.678;2023-07-31T08:33:48;100523.34;;;20.34;55.57
30073;BME280;16897;52.422;13.678;2023-07-31T08:37:54;100489.25;;;20.22;55.47
30073;BME280;16897;52.422;13.678;2023-07-31T08:41:59;100493.94;;;20.28;55.43
30073;BME280;16897;52.422;13.678;2023-07-31T08:46:02;100505.59;;;20.35;55.53
30073;BME280;16897;52.422;13.678;2023-07-31T08:50:04;100507.78;;;20.40;55.63
30073;BME280;16897;52.422;13.678;2023-07-31T08:54:06;100506.34;;;20.45;55.82
30073;BME280;16897;52.422;13.678;2023-07-31T08:58:08;100501.19;;;20.44;56.13
30073;BME280;16897;52.422;13.678;2023-07-31T09:02:09;100499.38;;;20.44;55.71
30073;BME280;16897;52.422;13.678;2023-07-31T09:06:11;100515.28;;;20.62;55.82
30073;BME280;16897;52.422;13.678;2023-07-31T09:10:13;100498.47;;;20.53;56.05
30073;BME280;16897;52.422;13.678;2023-07-31T09:14:15;100507.50;;;20.61;55.87
30073;BME280;16897;52.422;13.678;2023-07-31T09:18:17;100517.47;;;20.67;56.09
30073;BME280;16897;52.422;13.678;2023-07-31T09:22:35;100522.47;;;20.70;55.97
30073;BME280;16897;52.422;13.678;2023-07-31T09:26:37;100507.69;;;20.67;56.22
30073;BME280;16897;52.422;13.678;2023-07-31T09:30:49;100498.13;;;20.74;56.08
30073;BME280;16897;52.422;13.678;2023-07-31T09:34:51;100497.81;;;20.77;55.77
30073;BME280;16897;52.422;13.678;2023-07-31T09:38:52;100505.81;;;20.86;55.90
30073;BME280;16897;52.422;13.678;2023-07-31T09:42:59;100513.38;;;20.98;56.17
30073;BME280;16897;52.422;13.678;2023-07-31T09:47:01;100514.56;;;21.04;55.80
30073;BME280;16897;52.422;13.678;2023-07-31T09:51:04;100510.91;;;21.05;56.35
30073;BME280;16897;52.422;13.678;2023-07-31T09:55:06;100493.63;;;21.01;55.95
30073;BME280;16897;52.422;13.678;2023-07-31T09:59:08;100492.16;;;21.07;56.27
30073;BME280;16897;52.422;13.678;2023-07-31T10:03:12;100466.72;;;20.96;56.00
30073;BME280;16897;52.422;13.678;2023-07-31T10:07:17;100500.53;;;21.20;55.98
30073;BME280;16897;52.422;13.678;2023-07-31T10:11:19;100491.41;;;21.23;56.31
30073;BME280;16897;52.422;13.678;2023-07-31T10:15:22;100473.28;;;21.18;56.03
30073;BME280;16897;52.422;13.678;2023-07-31T10:19:24;100474.63;;;21.22;56.04
30073;BME280;16897;52.422;13.678;2023-07-31T10:23:27;100469.50;;;21.20;56.09
30073;BME280;16897;52.422;13.678;2023-07-31T10:27:29;100451.84;;;21.11;56.36
30073;BME280;16897;52.422;13.678;2023-07-31T10:31:31;100471.50;;;21.27;56.16
30073;BME280;16897;52.422;13.678;2023-07-31T10:35:34;100470.03;;;21.32;56.11
30073;BME280;16897;52.422;13.678;2023-07-31T10:39:36;100453.91;;;21.26;56.37
30073;BME280;16897;52.422;13.678;2023-07-31T10:43:40;100478.88;;;21.41;56.38
30073;BME280;16897;52.422;13.678;2023-07-31T10:47:45;100467.91;;;21.44;56.06
30073;BME280;16897;52.422;13.678;2023-07-31T10:51:47;100463.47;;;21.45;56.06
30073;BME280;16897;52.422;13.678;2023-07-31T10:55:49;100454.00;;;21.50;56.30
30073;BME280;16897;52.422;13.678;2023-07-31T10:59:52;100453.22;;;21.66;56.33
30073;BME280;16897;52.422;13.678;2023-07-31T11:04:14;100408.19;;;21.56;56.44
30073;BME280;16897;52.422;13.678;2023-07-31T11:12:20;100430.63;;;22.03;56.18
30073;BME280;16897;52.422;13.678;2023-07-31T11:16:25;100415.81;;;22.17;56.68
30073;BME280;16897;52.422;13.678;2023-07-31T11:20:27;100419.34;;;22.34;56.61
30073;BME280;16897;52.422;13.678;2023-07-31T11:24:30;100387.88;;;22.45;56.50
30073;BME280;16897;52.422;13.678;2023-07-31T11:28:33;100405.63;;;22.69;56.53
30073;BME280;16897;52.422;13.678;2023-07-31T11:32:36;100398.91;;;22.82;56.65
30073;BME280;16897;52.422;13.678;2023-07-31T11:36:38;100394.72;;;22.95;56.74
30073;BME280;16897;52.422;13.678;2023-07-31T11:40:43;100400.34;;;23.01;56.31
30073;BME280;16897;52.422;13.678;2023-07-31T11:44:45;100388.34;;;23.05;56.42
30073;BME280;16897;52.422;13.678;2023-07-31T11:48:49;100399.09;;;23.19;56.38
30073;BME280;16897;52.422;13.678;2023-07-31T11:52:54;100383.28;;;23.18;56.54
30073;BME280;16897;52.422;13.678;2023-07-31T11:56:58;100388.56;;;23.26;56.17
30073;BME280;16897;52.422;13.678;2023-07-31T12:01:02;100390.53;;;23.32;56.34
30073;BME280;16897;52.422;13.678;2023-07-31T12:05:04;100376.91;;;23.27;56.51
30073;BME280;16897;52.422;13.678;2023-07-31T12:09:06;100398.00;;;23.37;56.49
30073;BME280;16897;52.422;13.678;2023-07-31T12:13:12;100386.22;;;23.31;56.45
30073;BME280;16897;52.422;13.678;2023-07-31T12:17:21;100383.66;;;23.38;55.83
30073;BME280;16897;52.422;13.678;2023-07-31T12:21:22;100391.59;;;23.46;56.15
30073;BME280;16897;52.422;13.678;2023-07-31T12:25:32;100390.41;;;23.49;56.08
30073;BME280;16897;52.422;13.678;2023-07-31T12:29:34;100390.41;;;23.49;56.24
30073;BME280;16897;52.422;13.678;2023-07-31T12:33:37;100392.72;;;23.52;55.82
30073;BME280;16897;52.422;13.678;2023-07-31T12:37:39;100384.91;;;23.50;55.68
30073;BME280;16897;52.422;13.678;2023-07-31T12:41:41;100385.38;;;23.54;55.77
30073;BME280;16897;52.422;13.678;2023-07-31T12:45:43;100385.22;;;23.55;55.89
30073;BME280;16897;52.422;13.678;2023-07-31T12:49:45;100378.41;;;23.53;55.68
30073;BME280;16897;52.422;13.678;2023-07-31T12:53:46;100363.41;;;23.52;55.68
30073;BME280;16897;52.422;13.678;2023-07-31T12:57:48;100367.75;;;23.53;56.06
30073;BME280;16897;52.422;13.678;2023-07-31T13:01:50;100365.38;;;23.58;56.02
30073;BME280;16897;52.422;13.678;2023-07-31T13:05:51;100360.34;;;23.63;55.80
30073;BME280;16897;52.422;13.678;2023-07-31T13:09:53;100347.47;;;23.67;55.63
30073;BME280;16897;52.422;13.678;2023-07-31T13:13:55;100342.09;;;23.75;56.05
30073;BME280;16897;52.422;13.678;2023-07-31T13:17:57;100345.22;;;23.78;55.48
30073;BME280;16897;52.422;13.678;2023-07-31T13:21:58;100344.25;;;23.79;55.44
30073;BME280;16897;52.422;13.678;2023-07-31T13:25:59;100357.56;;;23.79;55.70
30073;BME280;16897;52.422;13.678;2023-07-31T13:30:01;100343.59;;;23.77;55.71
30073;BME280;16897;52.422;13.678;2023-07-31T13:34:03;100338.91;;;23.79;55.70
30073;BME280;16897;52.422;13.678;2023-07-31T13:38:05;100333.09;;;23.76;55.41
30073;BME280;16897;52.422;13.678;2023-07-31T13:42:08;100325.88;;;23.84;55.66
30073;BME280;16897;52.422;13.678;2023-07-31T13:46:10;100288.69;;;23.60;55.47
30073;BME280;16897;52.422;13.678;2023-07-31T13:50:12;100316.47;;;23.89;55.89
30073;BME280;16897;52.422;13.678;2023-07-31T13:54:14;100281.97;;;23.72;55.43
30073;BME280;16897;52.422;13.678;2023-07-31T13:58:17;100312.53;;;23.99;55.56
30073;BME280;16897;52.422;13.678;2023-07-31T14:02:19;100307.84;;;24.16;55.55
30073;BME280;16897;52.422;13.678;2023-07-31T14:06:20;100284.09;;;24.21;55.41
30073;BME280;16897;52.422;13.678;2023-07-31T14:10:22;100294.13;;;24.34;55.32
30073;BME280;16897;52.422;13.678;2023-07-31T14:14:23;100298.34;;;24.43;55.42
30073;BME280;16897;52.422;13.678;2023-07-31T14:18:25;100287.34;;;24.46;55.56
30073;BME280;16897;52.422;13.678;2023-07-31T14:22:28;100285.97;;;24.50;55.30
30073;BME280;16897;52.422;13.678;2023-07-31T14:26:30;100288.25;;;24.54;55.25
30073;BME280;16897;52.422;13.678;2023-07-31T14:30:32;100271.78;;;24.50;55.02
30073;BME280;16897;52.422;13.678;2023-07-31T14:34:33;100256.84;;;24.41;55.31
30073;BME280;16897;52.422;13.678;2023-07-31T14:38:35;100274.34;;;24.58;55.03
30073;BME280;16897;52.422;13.678;2023-07-31T14:42:36;100269.00;;;24.58;55.37
30073;BME280;16897;52.422;13.678;2023-07-31T14:46:38;100270.88;;;24.58;55.33
30073;BME280;16897;52.422;13.678;2023-07-31T14:50:39;100250.69;;;24.55;54.85
30073;BME280;16897;52.422;13.678;2023-07-31T14:54:41;100238.28;;;24.47;55.29
30073;BME280;16897;52.422;13.678;2023-07-31T14:58:43;100252.88;;;24.66;54.78
30073;BME280;16897;52.422;13.678;2023-07-31T15:02:44;100236.97;;;24.58;55.01
30073;BME280;16897;52.422;13.678;2023-07-31T15:06:46;100260.41;;;24.78;54.92
30073;BME280;16897;52.422;13.678;2023-07-31T15:10:48;100246.41;;;24.76;54.78
30073;BME280;16897;52.422;13.678;2023-07-31T15:14:50;100253.66;;;24.82;54.85
30073;BME280;16897;52.422;13.678;2023-07-31T15:18:53;100239.28;;;24.83;54.97
30073;BME280;16897;52.422;13.678;2023-07-31T15:22:55;100247.94;;;24.85;54.43
30073;BME280;16897;52.422;13.678;2023-07-31T15:26:57;100208.13;;;24.68;54.49
30073;BME280;16897;52.422;13.678;2023-07-31T15:30:58;100221.97;;;24.79;54.36
30073;BME280;16897;52.422;13.678;2023-07-31T15:35:00;100231.06;;;24.84;54.42
30073;BME280;16897;52.422;13.678;2023-07-31T15:39:01;100217.66;;;24.78;54.82
30073;BME280;16897;52.422;13.678;2023-07-31T15:43:03;100212.44;;;24.69;54.95
30073;BME280;16897;52.422;13.678;2023-07-31T15:47:05;100202.59;;;24.70;54.62
30073;BME280;16897;52.422;13.678;2023-07-31T15:51:07;100200.81;;;24.77;54.14
30073;BME280;16897;52.422;13.678;2023-07-31T15:55:10;100160.94;;;24.54;54.51
30073;BME280;16897;52.422;13.678;2023-07-31T15:59:11;100190.31;;;24.76;54.53
30073;BME280;16897;52.422;13.678;2023-07-31T16:03:13;100189.31;;;24.77;54.81
30073;BME280;16897;52.422;13.678;2023-07-31T16:07:15;100167.47;;;24.73;54.77
30073;BME280;16897;52.422;13.678;2023-07-31T16:11:16;100182.56;;;24.81;54.37
30073;BME280;16897;52.422;13.678;2023-07-31T16:15:18;100176.38;;;24.80;54.62
30073;BME280;16897;52.422;13.678;2023-07-31T16:19:20;100192.09;;;24.90;54.40
30073;BME280;16897;52.422;13.678;2023-07-31T16:23:21;100180.31;;;24.84;54.63
30073;BME280;16897;52.422;13.678;2023-07-31T16:27:23;100187.25;;;24.79;54.55
30073;BME280;16897;52.422;13.678;2023-07-31T16:31:26;100176.91;;;24.69;54.65
30073;BME280;16897;52.422;13.678;2023-07-31T16:35:27;100185.09;;;24.67;54.40
30073;BME280;16897;52.422;13.678;2023-07-31T16:39:28;100191.06;;;24.69;54.06
30073;BME280;16897;52.422;13.678;2023-07-31T16:43:36;100188.34;;;24.63;53.91
30073;BME280;16897;52.422;13.678;2023-07-31T16:47:37;100200.56;;;24.72;54.40
30073;BME280;16897;52.422;13.678;2023-07-31T16:51:38;100211.75;;;24.82;54.40
30073;BME280;16897;52.422;13.678;2023-07-31T16:55:40;100187.38;;;24.70;54.46
30073;BME280;16897;52.422;13.678;2023-07-31T16:59:41;100185.78;;;24.76;54.15
30073;BME280;16897;52.422;13.678;2023-07-31T17:03:42;100180.44;;;24.76;54.12
30073;BME280;16897;52.422;13.678;2023-07-31T17:07:44;100173.03;;;24.71;54.13
30073;BME280;16897;52.422;13.678;2023-07-31T17:11:46;100167.03;;;24.69;54.10
30073;BME280;16897;52.422;13.678;2023-07-31T17:15:47;100168.44;;;24.65;53.81
30073;BME280;16897;52.422;13.678;2023-07-31T17:19:49;100172.38;;;24.69;54.21
30073;BME280;16897;52.422;13.678;2023-07-31T17:23:50;100173.41;;;24.68;54.25
30073;BME280;16897;52.422;13.678;2023-07-31T17:27:52;100169.66;;;24.63;54.24
30073;BME280;16897;52.422;13.678;2023-07-31T17:31:54;100177.47;;;24.64;54.20
30073;BME280;16897;52.422;13.678;2023-07-31T17:35:55;100168.94;;;24.54;53.87
30073;BME280;16897;52.422;13.678;2023-07-31T17:39:56;100183.09;;;24.55;53.92
30073;BME280;16897;52.422;13.678;2023-07-31T17:43:58;100177.72;;;24.48;53.77
30073;BME280;16897;52.422;13.678;2023-07-31T17:47:59;100151.66;;;24.35;54.06
30073;BME280;16897;52.422;13.678;2023-07-31T17:52:02;100166.47;;;24.38;54.17
30073;BME280;16897;52.422;13.678;2023-07-31T17:56:03;100170.16;;;24.37;54.08
30073;BME280;16897;52.422;13.678;2023-07-31T18:00:05;100186.19;;;24.37;53.87
30073;BME280;16897;52.422;13.678;2023-07-31T18:04:07;100163.84;;;24.23;53.79
30073;BME280;16897;52.422;13.678;2023-07-31T18:08:10;100180.97;;;24.28;53.60
30073;BME280;16897;52.422;13.678;2023-07-31T18:12:12;100172.25;;;24.20;54.03
30073;BME280;16897;52.422;13.678;2023-07-31T18:16:14;100160.09;;;24.17;53.87
30073;BME280;16897;52.422;13.678;2023-07-31T18:20:15;100177.00;;;24.24;53.91
30073;BME280;16897;52.422;13.678;2023-07-31T18:24:17;100160.28;;;24.16;53.92
30073;BME280;16897;52.422;13.678;2023-07-31T18:28:19;100176.56;;;24.21;53.92
30073;BME280;16897;52.422;13.678;2023-07-31T18:32:20;100141.38;;;23.96;53.75
30073;BME280;16897;52.422;13.678;2023-07-31T18:36:22;100168.22;;;24.09;53.69
30073;BME280;16897;52.422;13.678;2023-07-31T18:40:23;100177.47;;;24.13;53.85
30073;BME280;16897;52.422;13.678;2023-07-31T18:44:24;100174.00;;;24.13;53.56
30073;BME280;16897;52.422;13.678;2023-07-31T18:48:26;100172.16;;;24.13;53.67
30073;BME280;16897;52.422;13.678;2023-07-31T18:52:27;100152.09;;;24.02;53.59
30073;BME280;16897;52.422;13.678;2023-07-31T18:56:29;100169.03;;;24.10;53.57
30073;BME280;16897;52.422;13.678;2023-07-31T19:00:31;100155.78;;;24.01;53.55
30073;BME280;16897;52.422;13.678;2023-07-31T19:04:33;100153.50;;;23.98;53.69
30073;BME280;16897;52.422;13.678;2023-07-31T19:08:34;100155.78;;;24.01;53.73
30073;BME280;16897;52.422;13.678;2023-07-31T19:12:36;100141.00;;;23.99;53.63
30073;BME280;16897;52.422;13.678;2023-07-31T19:16:38;100153.31;;;24.00;53.49
30073;BME280;16897;52.422;13.678;2023-07-31T19:20:39;100142.56;;;23.93;53.73
30073;BME280;16897;52.422;13.678;2023-07-31T19:24:41;100111.84;;;23.68;53.36
30073;BME280;16897;52.422;13.678;2023-07-31T19:28:42;100145.94;;;23.87;53.41
30073;BME280;16897;52.422;13.678;2023-07-31T19:32:44;100154.22;;;23.92;53.21
30073;BME280;16897;52.422;13.678;2023-07-31T19:36:46;100148.28;;;23.90;53.27
30073;BME280;16897;52.422;13.678;2023-07-31T19:40:49;100134.94;;;23.75;53.33
30073;BME280;16897;52.422;13.678;2023-07-31T19:44:50;100131.91;;;23.78;53.45
30073;BME280;16897;52.422;13.678;2023-07-31T19:48:52;100120.34;;;23.71;53.49
30073;BME280;16897;52.422;13.678;2023-07-31T19:52:54;100134.28;;;23.73;53.67
30073;BME280;16897;52.422;13.678;2023-07-31T19:56:56;100093.19;;;23.53;53.45
30073;BME280;16897;52.422;13.678;2023-07-31T20:00:58;100112.13;;;23.58;53.25
30073;BME280;16897;52.422;13.678;2023-07-31T20:05:00;100119.56;;;23.62;53.52
30073;BME280;16897;52.422;13.678;2023-07-31T20:09:01;100117.47;;;23.58;53.49
30073;BME280;16897;52.422;13.678;2023-07-31T20:13:05;100103.38;;;23.49;53.81
30073;BME280;16897;52.422;13.678;2023-07-31T20:17:07;100086.50;;;23.42;53.61
30073;BME280;16897;52.422;13.678;2023-07-31T20:21:08;100102.94;;;23.46;53.67
30073;BME280;16897;52.422;13.678;2023-07-31T20:25:09;100101.94;;;23.47;53.57
30073;BME280;16897;52.422;13.678;2023-07-31T20:29:11;100061.69;;;23.27;53.57
30073;BME280;16897;52.422;13.678;2023-07-31T20:33:13;100076.00;;;23.40;53.54
30073;BME280;16897;52.422;13.678;2023-07-31T20:37:14;100076.47;;;23.44;53.61
30073;BME280;16897;52.422;13.678;2023-07-31T20:41:16;100067.19;;;23.40;53.25
30073;BME280;16897;52.422;13.678;2023-07-31T20:45:18;100060.75;;;23.34;53.50
30073;BME280;16897;52.422;13.678;2023-07-31T20:49:19;100054.41;;;23.35;53.63
30073;BME280;16897;52.422;13.678;2023-07-31T20:53:20;100049.94;;;23.36;53.53
30073;BME280;16897;52.422;13.678;2023-07-31T20:57:21;100051.13;;;23.33;53.38